createdAt,value
2023-02-19T00:00:25.094Z,8.7
2023-02-19T00:01:26.500Z,8.6
2023-02-19T00:02:27.917Z,8.7
2023-02-19T00:03:29.417Z,8.6
2023-02-19T00:04:30.984Z,8.6
2023-02-19T00:05:32.423Z,8.6
2023-02-19T00:06:33.815Z,8.6
2023-02-19T00:07:35.232Z,8.6
2023-02-19T00:08:36.654Z,8.6
2023-02-19T00:09:38.067Z,8.6
2023-02-19T00:10:39.516Z,8.6
2023-02-19T00:11:40.901Z,8.6
2023-02-19T00:12:42.313Z,8.6
2023-02-19T00:13:43.746Z,8.6
2023-02-19T00:14:45.151Z,8.6
2023-02-19T00:15:46.612Z,8.6
2023-02-19T00:16:48.279Z,8.6
2023-02-19T00:17:49.731Z,8.6
2023-02-19T00:18:51.134Z,8.6
2023-02-19T00:19:52.520Z,8.6
2023-02-19T00:20:53.938Z,8.6
2023-02-19T00:21:55.350Z,8.6
2023-02-19T00:22:56.765Z,8.6
2023-02-19T00:23:58.182Z,8.6
2023-02-19T00:24:59.594Z,8.6
2023-02-19T00:26:08.897Z,8.6
2023-02-19T00:27:19.891Z,8.6
2023-02-19T00:28:29.849Z,8.6
2023-02-19T00:29:31.242Z,8.6
2023-02-19T00:30:32.681Z,8.6
2023-02-19T00:31:34.386Z,8.6
2023-02-19T00:32:36.361Z,8.6
2023-02-19T00:33:37.809Z,8.6
2023-02-19T00:34:39.252Z,8.6
2023-02-19T00:35:40.813Z,8.6
2023-02-19T00:36:42.222Z,8.6
2023-02-19T00:37:43.650Z,8.6
2023-02-19T00:38:45.073Z,8.6
2023-02-19T00:39:46.467Z,8.6
2023-02-19T00:40:47.883Z,8.6
2023-02-19T00:41:49.294Z,8.6
2023-02-19T00:42:50.711Z,8.5
2023-02-19T00:43:52.160Z,8.5
2023-02-19T00:44:53.556Z,8.5
2023-02-19T00:45:54.970Z,8.5
2023-02-19T00:46:56.385Z,8.5
2023-02-19T00:47:57.802Z,8.5
2023-02-19T00:48:59.235Z,8.5
2023-02-19T00:50:00.660Z,8.5
2023-02-19T00:51:02.953Z,8.5
2023-02-19T00:52:04.366Z,8.5
2023-02-19T00:53:05.781Z,8.5
2023-02-19T00:54:07.233Z,8.5
2023-02-19T00:55:08.624Z,8.5
2023-02-19T00:56:10.030Z,8.5
2023-02-19T00:57:11.445Z,8.5
2023-02-19T00:58:12.873Z,8.5
2023-02-19T00:59:14.286Z,8.5
2023-02-19T01:00:15.691Z,8.5
2023-02-19T01:01:17.128Z,8.5
2023-02-19T01:02:18.523Z,8.5
2023-02-19T01:03:19.935Z,8.5
2023-02-19T01:04:21.422Z,8.5
2023-02-19T01:05:22.844Z,8.4
2023-02-19T01:06:24.361Z,8.5
2023-02-19T01:07:25.844Z,8.5
2023-02-19T01:08:27.258Z,8.5
2023-02-19T01:09:28.685Z,8.5
2023-02-19T01:10:30.083Z,8.5
2023-02-19T01:11:31.503Z,8.5
2023-02-19T01:12:32.916Z,8.5
2023-02-19T01:13:34.329Z,8.5
2023-02-19T01:14:35.766Z,8.5
2023-02-19T01:15:36.887Z,8.5
2023-02-19T01:16:38.293Z,8.5
2023-02-19T01:17:39.175Z,8.5
2023-02-19T01:18:40.320Z,8.5
2023-02-19T01:19:41.768Z,8.5
2023-02-19T01:20:43.175Z,8.4
2023-02-19T01:21:44.756Z,8.5
2023-02-19T01:22:45.641Z,8.5
2023-02-19T01:23:47.065Z,8.5
2023-02-19T01:24:48.025Z,8.5
2023-02-19T01:25:49.426Z,8.4
2023-02-19T01:26:50.569Z,8.4
2023-02-19T01:27:51.747Z,8.4
2023-02-19T01:28:52.893Z,8.4
2023-02-19T01:29:54.311Z,8.4
2023-02-19T01:30:55.742Z,8.4
2023-02-19T01:31:57.385Z,8.4
2023-02-19T01:32:58.860Z,8.4
2023-02-19T01:33:59.991Z,8.5
2023-02-19T01:35:00.974Z,8.4
2023-02-19T01:36:02.407Z,8.4
2023-02-19T01:37:03.295Z,8.4
2023-02-19T01:38:04.433Z,8.4
2023-02-19T01:39:05.569Z,8.4
2023-02-19T01:40:06.998Z,8.4
2023-02-19T01:41:08.724Z,8.4
2023-02-19T01:42:10.950Z,8.5
2023-02-19T01:43:12.365Z,8.5
2023-02-19T01:44:13.776Z,8.4
2023-02-19T01:45:15.208Z,8.4
2023-02-19T01:46:16.645Z,8.5
2023-02-19T01:47:17.842Z,8.5
2023-02-19T01:48:19.258Z,8.5
2023-02-19T01:49:20.716Z,8.5
2023-02-19T01:50:22.405Z,8.5
2023-02-19T01:51:23.799Z,8.5
2023-02-19T01:52:24.910Z,8.5
2023-02-19T01:53:26.328Z,8.5
2023-02-19T01:54:27.742Z,8.5
2023-02-19T01:55:29.178Z,8.5
2023-02-19T01:56:30.570Z,8.5
2023-02-19T01:57:31.711Z,8.5
2023-02-19T01:58:33.120Z,8.5
2023-02-19T01:59:34.541Z,8.5
2023-02-19T02:00:35.981Z,8.5
2023-02-19T02:01:37.062Z,8.5
2023-02-19T02:02:38.431Z,8.5
2023-02-19T02:03:39.847Z,8.4
2023-02-19T02:04:41.260Z,8.5
2023-02-19T02:05:42.684Z,8.5
2023-02-19T02:06:44.114Z,8.5
2023-02-19T02:07:45.505Z,8.5
2023-02-19T02:08:46.917Z,8.4
2023-02-19T02:09:48.335Z,8.4
2023-02-19T02:10:49.772Z,8.4
2023-02-19T02:11:50.892Z,8.4
2023-02-19T02:12:52.311Z,8.4
2023-02-19T02:13:53.716Z,8.4
2023-02-19T02:14:55.128Z,8.4
2023-02-19T02:15:56.328Z,8.4
2023-02-19T02:16:57.716Z,8.4
2023-02-19T02:17:59.135Z,8.4
2023-02-19T02:19:00.270Z,8.4
2023-02-19T02:20:01.469Z,8.4
2023-02-19T02:21:02.605Z,8.4
2023-02-19T02:22:04.025Z,8.4
2023-02-19T02:23:05.422Z,8.4
2023-02-19T02:24:06.560Z,8.4
2023-02-19T02:25:07.998Z,8.4
2023-02-19T02:26:09.845Z,8.4
2023-02-19T02:27:11.236Z,8.4
2023-02-19T02:28:12.652Z,8.4
2023-02-19T02:29:14.073Z,8.4
2023-02-19T02:30:15.231Z,8.4
2023-02-19T02:31:16.518Z,8.4
2023-02-19T02:32:18.292Z,8.4
2023-02-19T02:33:19.575Z,8.4
2023-02-19T02:34:20.477Z,8.4
2023-02-19T02:35:21.892Z,8.4
2023-02-19T02:36:23.318Z,8.4
2023-02-19T02:37:24.754Z,8.4
2023-02-19T02:38:26.149Z,8.4
2023-02-19T02:39:27.557Z,8.4
2023-02-19T02:40:28.974Z,8.4
2023-02-19T02:41:30.413Z,8.4
2023-02-19T02:42:31.829Z,8.4
2023-02-19T02:43:33.232Z,8.4
2023-02-19T02:44:34.845Z,8.4
2023-02-19T02:45:36.555Z,8.4
2023-02-19T02:46:38.464Z,8.4
2023-02-19T02:47:39.587Z,8.4
2023-02-19T02:48:41.025Z,8.4
2023-02-19T02:49:42.418Z,8.4
2023-02-19T02:50:43.834Z,8.4
2023-02-19T02:51:45.485Z,8.4
2023-02-19T02:52:46.579Z,8.4
2023-02-19T02:53:47.756Z,8.4
2023-02-19T02:54:48.926Z,8.4
2023-02-19T02:55:50.108Z,8.4
2023-02-19T02:56:51.537Z,8.4
2023-02-19T02:57:52.442Z,8.4
2023-02-19T02:58:53.864Z,8.4
2023-02-19T02:59:54.996Z,8.4
2023-02-19T03:00:56.430Z,8.4
2023-02-19T03:01:57.983Z,8.3
2023-02-19T03:02:59.645Z,8.3
2023-02-19T03:04:01.061Z,8.3
2023-02-19T03:05:02.477Z,8.3
2023-02-19T03:06:03.683Z,8.3
2023-02-19T03:07:04.843Z,8.3
2023-02-19T03:08:06.236Z,8.3
2023-02-19T03:09:07.650Z,8.3
2023-02-19T03:10:09.067Z,8.3
2023-02-19T03:11:10.195Z,8.3
2023-02-19T03:12:12.426Z,8.3
2023-02-19T03:13:13.834Z,8.3
2023-02-19T03:14:14.999Z,8.3
2023-02-19T03:15:16.418Z,8.3
2023-02-19T03:16:17.858Z,8.3
2023-02-19T03:17:19.265Z,8.3
2023-02-19T03:18:20.386Z,8.3
2023-02-19T03:19:21.880Z,8.3
2023-02-19T03:20:23.315Z,8.3
2023-02-19T03:21:24.722Z,8.3
2023-02-19T03:22:26.149Z,8.3
2023-02-19T03:23:27.557Z,8.4
2023-02-19T03:24:28.963Z,8.4
2023-02-19T03:25:30.099Z,8.4
2023-02-19T03:26:31.512Z,8.4
2023-02-19T03:27:32.926Z,8.4
2023-02-19T03:28:33.799Z,8.4
2023-02-19T03:29:35.201Z,8.4
2023-02-19T03:30:36.655Z,8.4
2023-02-19T03:31:38.203Z,8.4
2023-02-19T03:32:39.302Z,8.4
2023-02-19T03:33:40.698Z,8.4
2023-02-19T03:34:42.111Z,8.4
2023-02-19T03:35:43.522Z,8.4
2023-02-19T03:36:44.937Z,8.4
2023-02-19T03:37:46.076Z,8.4
2023-02-19T03:38:47.690Z,8.4
2023-02-19T03:39:49.045Z,8.4
2023-02-19T03:40:50.449Z,8.4
2023-02-19T03:41:51.870Z,8.4
2023-02-19T03:42:55.063Z,8.4
2023-02-19T03:43:57.295Z,8.4
2023-02-19T03:44:58.698Z,8.4
2023-02-19T03:46:00.204Z,8.4
2023-02-19T03:47:01.840Z,8.4
2023-02-19T03:48:03.226Z,8.4
2023-02-19T03:49:04.642Z,8.4
2023-02-19T03:50:06.044Z,8.4
2023-02-19T03:51:07.181Z,8.4
2023-02-19T03:52:08.592Z,8.4
2023-02-19T03:53:10.011Z,8.4
2023-02-19T03:54:11.433Z,8.4
2023-02-19T03:55:12.837Z,8.4
2023-02-19T03:56:14.263Z,8.4
2023-02-19T03:57:15.667Z,8.4
2023-02-19T03:58:16.812Z,8.4
2023-02-19T03:59:17.976Z,8.4
2023-02-19T04:00:19.177Z,8.4
2023-02-19T04:01:20.614Z,8.4
2023-02-19T04:02:22.022Z,8.4
2023-02-19T04:03:23.530Z,8.4
2023-02-19T04:04:25.403Z,8.4
2023-02-19T04:05:26.539Z,8.4
2023-02-19T04:06:27.936Z,8.4
2023-02-19T04:07:29.350Z,8.4
2023-02-19T04:08:30.769Z,8.4
2023-02-19T04:09:32.196Z,8.4
2023-02-19T04:10:33.597Z,8.4
2023-02-19T04:11:34.455Z,8.4
2023-02-19T04:12:35.347Z,8.4
2023-02-19T04:13:36.523Z,8.4
2023-02-19T04:14:37.670Z,8.4
2023-02-19T04:15:39.071Z,8.4
2023-02-19T04:16:40.538Z,8.4
2023-02-19T04:17:41.721Z,8.4
2023-02-19T04:18:42.901Z,8.4
2023-02-19T04:19:44.320Z,8.4
2023-02-19T04:20:45.731Z,8.4
2023-02-19T04:21:47.149Z,8.4
2023-02-19T04:22:48.559Z,8.4
2023-02-19T04:23:49.700Z,8.4
2023-02-19T04:24:50.700Z,8.4
2023-02-19T04:25:51.906Z,8.4
2023-02-19T04:26:53.325Z,8.4
2023-02-19T04:27:54.745Z,8.4
2023-02-19T04:28:56.153Z,8.4
2023-02-19T04:29:57.313Z,8.4
2023-02-19T04:30:58.758Z,8.4
2023-02-19T04:31:59.855Z,8.4
2023-02-19T04:33:01.207Z,8.4
2023-02-19T04:34:02.752Z,8.4
2023-02-19T04:35:04.187Z,8.4
2023-02-19T04:36:05.354Z,8.4
2023-02-19T04:37:06.773Z,8.4
2023-02-19T04:38:08.195Z,8.4
2023-02-19T04:39:09.604Z,8.4
2023-02-19T04:40:11.047Z,8.4
2023-02-19T04:41:12.431Z,8.4
2023-02-19T04:42:14.317Z,8.4
2023-02-19T04:43:15.460Z,8.4
2023-02-19T04:44:16.869Z,8.4
2023-02-19T04:45:18.303Z,8.4
2023-02-19T04:46:19.722Z,8.4
2023-02-19T04:47:21.280Z,8.4
2023-02-19T04:48:22.420Z,8.4
2023-02-19T04:49:23.832Z,8.4
2023-02-19T04:50:25.247Z,8.4
2023-02-19T04:51:26.386Z,8.4
2023-02-19T04:52:27.284Z,8.4
2023-02-19T04:53:28.682Z,8.4
2023-02-19T04:54:30.104Z,8.4
2023-02-19T04:55:31.541Z,8.4
2023-02-19T04:56:32.926Z,8.4
2023-02-19T04:57:34.341Z,8.4
2023-02-19T04:58:35.750Z,8.4
2023-02-19T04:59:37.171Z,8.4
2023-02-19T05:00:38.323Z,8.4
2023-02-19T05:01:39.374Z,8.4
2023-02-19T05:02:40.541Z,8.4
2023-02-19T05:03:41.674Z,8.3
2023-02-19T05:04:42.565Z,8.2
2023-02-19T05:05:43.807Z,8.2
2023-02-19T05:06:45.213Z,8.1
2023-02-19T05:07:46.621Z,8.1
2023-02-19T05:08:47.762Z,8
2023-02-19T05:09:49.175Z,8
2023-02-19T05:10:50.630Z,7.9
2023-02-19T05:11:51.747Z,7.8
2023-02-19T05:12:52.589Z,7.8
2023-02-19T05:13:54.005Z,7.7
2023-02-19T05:14:55.455Z,7.6
2023-02-19T05:15:56.883Z,7.6
2023-02-19T05:16:58.442Z,7.5
2023-02-19T05:17:59.862Z,7.5
2023-02-19T05:19:01.279Z,7.4
2023-02-19T05:20:02.437Z,7.4
2023-02-19T05:21:03.835Z,7.3
2023-02-19T05:22:05.238Z,7.3
2023-02-19T05:23:06.658Z,7.3
2023-02-19T05:24:07.838Z,7.2
2023-02-19T05:25:09.035Z,7.2
2023-02-19T05:26:10.452Z,7.2
2023-02-19T05:27:11.869Z,7.1
2023-02-19T05:28:13.269Z,7.1
2023-02-19T05:29:14.687Z,7.1
2023-02-19T05:30:15.859Z,7
2023-02-19T05:31:17.517Z,7
2023-02-19T05:32:19.142Z,7
2023-02-19T05:33:20.564Z,6.9
2023-02-19T05:34:21.980Z,6.9
2023-02-19T05:35:23.109Z,6.9
2023-02-19T05:36:23.986Z,6.9
2023-02-19T05:37:25.386Z,6.9
2023-02-19T05:38:26.796Z,6.8
2023-02-19T05:39:28.211Z,6.8
2023-02-19T05:40:29.350Z,6.8
2023-02-19T05:41:30.773Z,6.7
2023-02-19T05:42:32.176Z,6.7
2023-02-19T05:43:33.624Z,6.7
2023-02-19T05:44:34.808Z,6.7
2023-02-19T05:45:36.227Z,6.6
2023-02-19T05:46:37.668Z,6.6
2023-02-19T05:47:38.896Z,6.6
2023-02-19T05:48:40.322Z,6.6
2023-02-19T05:49:41.730Z,6.5
2023-02-19T05:50:43.143Z,6.5
2023-02-19T05:51:44.341Z,6.5
2023-02-19T05:52:45.755Z,6.5
2023-02-19T05:53:47.205Z,6.5
2023-02-19T05:54:48.593Z,6.4
2023-02-19T05:55:49.994Z,6.4
2023-02-19T05:56:51.364Z,6.4
2023-02-19T05:57:52.779Z,6.4
2023-02-19T05:58:54.206Z,6.4
2023-02-19T05:59:55.384Z,6.4
2023-02-19T06:00:57.095Z,6.4
2023-02-19T06:01:58.477Z,6.3
2023-02-19T06:02:59.769Z,6.3
2023-02-19T06:04:01.384Z,6.3
2023-02-19T06:05:02.688Z,6.3
2023-02-19T06:06:04.110Z,6.3
2023-02-19T06:07:05.514Z,6.2
2023-02-19T06:08:06.656Z,6.2
2023-02-19T06:09:07.853Z,6.2
2023-02-19T06:10:08.993Z,6.2
2023-02-19T06:11:10.656Z,6.2
2023-02-19T06:12:12.976Z,6.1
2023-02-19T06:13:15.436Z,6.1
2023-02-19T06:14:18.578Z,6.1
2023-02-19T06:15:19.997Z,6.1
2023-02-19T06:16:21.466Z,6.1
2023-02-19T06:17:22.836Z,6.1
2023-02-19T06:18:24.252Z,6.1
2023-02-19T06:19:25.668Z,6.1
2023-02-19T06:20:26.797Z,6
2023-02-19T06:21:27.943Z,6
2023-02-19T06:22:29.124Z,6
2023-02-19T06:23:30.546Z,6
2023-02-19T06:24:31.665Z,6
2023-02-19T06:25:33.093Z,6
2023-02-19T06:26:34.274Z,6
2023-02-19T06:27:35.653Z,6
2023-02-19T06:28:36.816Z,6
2023-02-19T06:29:38.241Z,6
2023-02-19T06:30:39.625Z,6
2023-02-19T06:31:40.845Z,6
2023-02-19T06:32:42.405Z,6
2023-02-19T06:33:43.852Z,6
2023-02-19T06:34:45.244Z,5.9
2023-02-19T06:35:46.662Z,5.9
2023-02-19T06:36:47.857Z,5.9
2023-02-19T06:37:49.080Z,5.9
2023-02-19T06:38:50.508Z,5.9
2023-02-19T06:39:51.858Z,5.9
2023-02-19T06:40:52.982Z,5.8
2023-02-19T06:41:54.402Z,5.8
2023-02-19T06:42:55.892Z,5.8
2023-02-19T06:43:57.038Z,5.8
2023-02-19T06:44:58.446Z,5.8
2023-02-19T06:45:59.869Z,5.8
2023-02-19T06:47:01.335Z,5.8
2023-02-19T06:48:02.714Z,5.8
2023-02-19T06:49:04.134Z,5.7
2023-02-19T06:50:05.319Z,5.7
2023-02-19T06:51:06.732Z,5.7
2023-02-19T06:52:08.160Z,5.7
2023-02-19T06:53:09.565Z,5.7
2023-02-19T06:54:11.001Z,5.7
2023-02-19T06:55:12.392Z,5.6
2023-02-19T06:56:13.941Z,5.6
2023-02-19T06:57:14.809Z,5.6
2023-02-19T06:58:16.220Z,5.6
2023-02-19T06:59:17.628Z,5.6
2023-02-19T07:00:19.048Z,5.6
2023-02-19T07:01:20.556Z,5.6
2023-02-19T07:02:22.031Z,5.5
2023-02-19T07:03:23.431Z,5.5
2023-02-19T07:04:24.899Z,5.5
2023-02-19T07:05:26.465Z,5.5
2023-02-19T07:06:27.874Z,5.5
2023-02-19T07:07:29.301Z,5.4
2023-02-19T07:08:30.715Z,5.4
2023-02-19T07:09:32.115Z,5.4
2023-02-19T07:10:33.536Z,5.4
2023-02-19T07:11:34.679Z,5.3
2023-02-19T07:12:36.100Z,5.3
2023-02-19T07:13:37.505Z,5.3
2023-02-19T07:14:38.918Z,5.3
2023-02-19T07:15:40.062Z,5.3
2023-02-19T07:16:41.538Z,5.3
2023-02-19T07:17:43.078Z,5.2
2023-02-19T07:18:44.482Z,5.2
2023-02-19T07:19:45.898Z,5.2
2023-02-19T07:20:47.313Z,5.2
2023-02-19T07:21:48.738Z,5.2
2023-02-19T07:22:50.147Z,5.2
2023-02-19T07:23:51.555Z,5.2
2023-02-19T07:24:52.973Z,5.2
2023-02-19T07:25:54.388Z,5.2
2023-02-19T07:26:55.813Z,5.1
2023-02-19T07:27:57.268Z,5.1
2023-02-19T07:28:58.399Z,5.1
2023-02-19T07:29:59.800Z,5.1
2023-02-19T07:31:01.418Z,5.1
2023-02-19T07:32:03.011Z,5.1
2023-02-19T07:33:04.545Z,5.1
2023-02-19T07:34:05.943Z,5.1
2023-02-19T07:35:07.358Z,5
2023-02-19T07:36:08.777Z,5
2023-02-19T07:37:10.211Z,5
2023-02-19T07:38:11.608Z,5
2023-02-19T07:39:13.029Z,5
2023-02-19T07:40:14.441Z,5
2023-02-19T07:41:15.859Z,5
2023-02-19T07:42:17.473Z,5
2023-02-19T07:43:18.844Z,5
2023-02-19T07:44:20.265Z,5
2023-02-19T07:45:21.677Z,5
2023-02-19T07:46:23.106Z,5
2023-02-19T07:47:24.561Z,5
2023-02-19T07:48:25.655Z,5
2023-02-19T07:49:27.079Z,5
2023-02-19T07:50:28.493Z,5
2023-02-19T07:51:29.918Z,5
2023-02-19T07:52:31.339Z,5
2023-02-19T07:53:32.745Z,5
2023-02-19T07:54:34.157Z,5
2023-02-19T07:55:35.572Z,5
2023-02-19T07:56:36.983Z,5
2023-02-19T07:57:38.430Z,5.1
2023-02-19T07:58:39.818Z,5.1
2023-02-19T07:59:41.318Z,5.1
2023-02-19T08:00:42.736Z,5.1
2023-02-19T08:01:44.166Z,5.1
2023-02-19T08:02:45.576Z,5.1
2023-02-19T08:03:48.844Z,5.1
2023-02-19T08:04:51.595Z,5.1
2023-02-19T08:05:53.009Z,5.1
2023-02-19T08:06:54.432Z,5.1
2023-02-19T08:07:55.857Z,5.1
2023-02-19T08:08:57.259Z,5.1
2023-02-19T08:09:58.676Z,5.1
2023-02-19T08:11:00.125Z,5.1
2023-02-19T08:12:01.514Z,5.1
2023-02-19T08:13:02.951Z,5.1
2023-02-19T08:14:04.345Z,5.1
2023-02-19T08:15:05.762Z,5.2
2023-02-19T08:16:17.271Z,5.2
2023-02-19T08:17:43.859Z,5.2
2023-02-19T08:18:45.335Z,5.2
2023-02-19T08:19:46.755Z,5.2
2023-02-19T08:20:48.170Z,5.2
2023-02-19T08:21:49.578Z,5.2
2023-02-19T08:22:50.998Z,5.2
2023-02-19T08:23:52.437Z,5.2
2023-02-19T08:24:53.855Z,5.3
2023-02-19T08:25:55.279Z,5.3
2023-02-19T08:26:56.691Z,5.3
2023-02-19T08:27:58.105Z,5.4
2023-02-19T08:28:59.516Z,5.4
2023-02-19T08:30:00.955Z,5.4
2023-02-19T08:31:02.532Z,5.4
2023-02-19T08:32:04.095Z,5.4
2023-02-19T08:33:05.558Z,5.4
2023-02-19T08:34:06.974Z,5.4
2023-02-19T08:35:08.392Z,5.4
2023-02-19T08:36:10.073Z,5.4
2023-02-19T08:37:11.442Z,5.4
2023-02-19T08:38:12.920Z,5.5
2023-02-19T08:39:14.344Z,5.5
2023-02-19T08:40:15.756Z,5.5
2023-02-19T08:41:17.187Z,5.6
2023-02-19T08:42:18.586Z,5.6
2023-02-19T08:43:19.718Z,5.6
2023-02-19T08:44:21.138Z,5.5
2023-02-19T08:45:22.552Z,5.5
2023-02-19T08:46:24.029Z,5.5
2023-02-19T08:47:25.636Z,5.5
2023-02-19T08:48:27.055Z,5.5
2023-02-19T08:49:28.468Z,5.5
2023-02-19T08:50:29.898Z,5.5
2023-02-19T08:51:31.322Z,5.5
2023-02-19T08:52:32.757Z,5.5
2023-02-19T08:53:34.144Z,5.5
2023-02-19T08:54:37.203Z,5.5
2023-02-19T08:55:38.688Z,5.6
2023-02-19T08:56:40.138Z,5.6
2023-02-19T08:57:41.528Z,5.7
2023-02-19T08:58:42.932Z,5.7
2023-02-19T08:59:44.347Z,5.8
2023-02-19T09:00:45.764Z,5.9
2023-02-19T09:01:47.367Z,5.9
2023-02-19T09:02:48.759Z,6
2023-02-19T09:03:50.230Z,6.1
2023-02-19T09:04:51.931Z,6.1
2023-02-19T09:05:53.348Z,6.1
2023-02-19T09:06:54.780Z,6.1
2023-02-19T09:07:56.173Z,6.1
2023-02-19T09:08:57.777Z,6.1
2023-02-19T09:09:59.199Z,6.2
2023-02-19T09:11:00.608Z,6.2
2023-02-19T09:12:02.064Z,6.1
2023-02-19T09:13:03.466Z,6.1
2023-02-19T09:14:04.860Z,6.1
2023-02-19T09:15:06.272Z,6.2
2023-02-19T09:16:07.732Z,6.2
2023-02-19T09:17:09.948Z,6.2
2023-02-19T09:18:11.415Z,6.2
2023-02-19T09:19:12.833Z,6.2
2023-02-19T09:20:14.258Z,6.2
2023-02-19T09:21:15.667Z,6.2
2023-02-19T09:22:17.088Z,6.2
2023-02-19T09:23:18.501Z,6.2
2023-02-19T09:24:19.912Z,6.2
2023-02-19T09:25:21.330Z,6.2
2023-02-19T09:26:22.743Z,6.3
2023-02-19T09:27:24.167Z,6.3
2023-02-19T09:28:25.584Z,6.3
2023-02-19T09:29:26.992Z,6.3
2023-02-19T09:30:28.439Z,6.3
2023-02-19T09:31:30.107Z,6.3
2023-02-19T09:32:31.801Z,6.3
2023-02-19T09:33:33.211Z,6.3
2023-02-19T09:34:34.624Z,6.4
2023-02-19T09:35:36.215Z,6.4
2023-02-19T09:36:37.632Z,6.4
2023-02-19T09:37:39.062Z,6.4
2023-02-19T09:38:40.468Z,6.4
2023-02-19T09:39:41.881Z,6.4
2023-02-19T09:40:43.334Z,6.4
2023-02-19T09:41:44.717Z,6.4
2023-02-19T09:42:46.178Z,6.3
2023-02-19T09:43:47.545Z,6.3
2023-02-19T09:44:48.967Z,6.3
2023-02-19T09:45:50.106Z,6.3
2023-02-19T09:46:51.608Z,6.4
2023-02-19T09:47:53.003Z,6.4
2023-02-19T09:48:54.420Z,6.4
2023-02-19T09:49:55.810Z,6.4
2023-02-19T09:50:57.230Z,6.4
2023-02-19T09:51:58.645Z,6.4
2023-02-19T09:53:00.101Z,6.4
2023-02-19T09:54:01.479Z,6.5
2023-02-19T09:55:02.617Z,6.5
2023-02-19T09:56:04.027Z,6.5
2023-02-19T09:57:05.443Z,6.5
2023-02-19T09:58:07.636Z,6.6
2023-02-19T09:59:09.044Z,6.6
2023-02-19T10:00:10.757Z,6.6
2023-02-19T10:01:12.066Z,6.6
2023-02-19T10:02:14.300Z,6.7
2023-02-19T10:03:15.843Z,6.7
2023-02-19T10:04:17.247Z,6.7
2023-02-19T10:05:18.696Z,6.8
2023-02-19T10:06:20.219Z,6.8
2023-02-19T10:07:21.628Z,6.9
2023-02-19T10:08:23.081Z,6.9
2023-02-19T10:09:23.918Z,6.9
2023-02-19T10:10:25.326Z,7
2023-02-19T10:11:26.471Z,7.1
2023-02-19T10:12:27.877Z,7.1
2023-02-19T10:13:28.778Z,7.1
2023-02-19T10:14:29.876Z,7.2
2023-02-19T10:15:31.298Z,7.1
2023-02-19T10:16:32.495Z,7.1
2023-02-19T10:17:33.604Z,7.1
2023-02-19T10:18:35.478Z,7.1
2023-02-19T10:19:36.852Z,7.2
2023-02-19T10:20:38.270Z,7.3
2023-02-19T10:21:39.467Z,7.4
2023-02-19T10:22:40.608Z,7.5
2023-02-19T10:23:42.045Z,7.6
2023-02-19T10:24:43.435Z,7.6
2023-02-19T10:25:44.850Z,7.6
2023-02-19T10:26:46.266Z,7.6
2023-02-19T10:27:47.679Z,7.6
2023-02-19T10:28:49.113Z,7.5
2023-02-19T10:29:50.513Z,7.5
2023-02-19T10:30:51.708Z,7.5
2023-02-19T10:31:53.219Z,7.5
2023-02-19T10:32:54.645Z,7.4
2023-02-19T10:33:56.080Z,7.4
2023-02-19T10:34:57.216Z,7.5
2023-02-19T10:35:58.633Z,7.6
2023-02-19T10:36:59.490Z,7.7
2023-02-19T10:38:00.904Z,7.7
2023-02-19T10:39:02.127Z,7.8
2023-02-19T10:40:03.008Z,7.8
2023-02-19T10:41:04.424Z,7.8
2023-02-19T10:42:05.839Z,7.8
2023-02-19T10:43:06.702Z,7.8
2023-02-19T10:44:08.143Z,7.8
2023-02-19T10:45:09.291Z,7.8
2023-02-19T10:46:10.452Z,7.8
2023-02-19T10:47:11.406Z,7.9
2023-02-19T10:48:12.819Z,7.9
2023-02-19T10:49:14.266Z,7.9
2023-02-19T10:50:15.656Z,7.9
2023-02-19T10:51:16.793Z,7.9
2023-02-19T10:52:17.783Z,7.9
2023-02-19T10:53:19.250Z,7.9
2023-02-19T10:54:20.677Z,7.9
2023-02-19T10:55:22.286Z,7.9
2023-02-19T10:56:23.704Z,7.9
2023-02-19T10:57:25.116Z,7.8
2023-02-19T10:58:26.540Z,7.8
2023-02-19T10:59:27.971Z,7.8
2023-02-19T11:00:28.860Z,7.7
2023-02-19T11:01:30.319Z,7.7
2023-02-19T11:02:31.433Z,7.7
2023-02-19T11:03:32.880Z,7.7
2023-02-19T11:04:34.214Z,7.7
2023-02-19T11:05:36.147Z,7.7
2023-02-19T11:06:37.561Z,7.8
2023-02-19T11:07:38.991Z,7.8
2023-02-19T11:08:40.117Z,7.9
2023-02-19T11:09:41.324Z,7.9
2023-02-19T11:10:42.718Z,7.9
2023-02-19T11:11:43.891Z,7.8
2023-02-19T11:12:45.309Z,7.8
2023-02-19T11:13:46.723Z,7.7
2023-02-19T11:14:48.152Z,7.7
2023-02-19T11:15:49.561Z,7.7
2023-02-19T11:16:50.972Z,7.7
2023-02-19T11:17:52.111Z,7.6
2023-02-19T11:18:55.327Z,7.5
2023-02-19T11:19:58.315Z,7.6
2023-02-19T11:20:59.713Z,7.6
2023-02-19T11:22:01.125Z,7.6
2023-02-19T11:23:02.263Z,7.6
2023-02-19T11:24:03.399Z,7.6
2023-02-19T11:25:04.556Z,7.6
2023-02-19T11:26:05.953Z,7.7
2023-02-19T11:27:07.374Z,7.7
2023-02-19T11:28:08.536Z,7.7
2023-02-19T11:29:09.407Z,7.8
2023-02-19T11:30:10.597Z,7.8
2023-02-19T11:31:12.217Z,7.8
2023-02-19T11:32:14.709Z,7.8
2023-02-19T11:33:15.784Z,7.9
2023-02-19T11:34:17.197Z,7.9
2023-02-19T11:35:18.367Z,8
2023-02-19T11:36:19.495Z,8
2023-02-19T11:37:20.329Z,8.1
2023-02-19T11:38:21.776Z,8.1
2023-02-19T11:39:22.905Z,8.1
2023-02-19T11:40:24.363Z,8.1
2023-02-19T11:41:25.739Z,8.1
2023-02-19T11:42:29.223Z,8.1
2023-02-19T11:43:30.767Z,8.1
2023-02-19T11:44:31.940Z,8.1
2023-02-19T11:45:33.384Z,8.1
2023-02-19T11:46:34.813Z,8.1
2023-02-19T11:47:35.981Z,8.2
2023-02-19T11:48:37.105Z,8.3
2023-02-19T11:49:38.524Z,8.3
2023-02-19T11:50:39.608Z,8.4
2023-02-19T11:51:40.992Z,8.4
2023-02-19T11:52:42.183Z,8.4
2023-02-19T11:53:43.587Z,8.4
2023-02-19T11:54:45.001Z,8.4
2023-02-19T11:55:46.300Z,8.3
2023-02-19T11:56:47.683Z,8.3
2023-02-19T11:57:48.828Z,8.3
2023-02-19T11:58:50.237Z,8.3
2023-02-19T11:59:51.495Z,8.3
2023-02-19T12:00:52.647Z,8.3
2023-02-19T12:01:53.855Z,8.3
2023-02-19T12:02:55.082Z,8.3
2023-02-19T12:03:56.293Z,8.3
2023-02-19T12:04:57.520Z,8.3
2023-02-19T12:05:58.718Z,8.2
2023-02-19T12:07:00.122Z,8.1
2023-02-19T12:08:01.527Z,8.1
2023-02-19T12:09:03.096Z,8.1
2023-02-19T12:10:04.508Z,8.1
2023-02-19T12:11:06.037Z,8.1
2023-02-19T12:12:07.428Z,8.1
2023-02-19T12:13:08.846Z,8.1
2023-02-19T12:14:10.263Z,8.2
2023-02-19T12:15:11.676Z,8.2
2023-02-19T12:16:13.146Z,8.2
2023-02-19T12:17:14.943Z,8.2
2023-02-19T12:18:16.467Z,8.2
2023-02-19T12:19:17.884Z,8.3
2023-02-19T12:20:19.020Z,8.3
2023-02-19T12:21:20.610Z,8.3
2023-02-19T12:22:21.706Z,8.3
2023-02-19T12:23:23.120Z,8.3
2023-02-19T12:24:24.256Z,8.4
2023-02-19T12:25:25.515Z,8.4
2023-02-19T12:26:26.962Z,8.4
2023-02-19T12:27:28.344Z,8.4
2023-02-19T12:28:29.793Z,8.4
2023-02-19T12:29:31.208Z,8.4
2023-02-19T12:30:32.625Z,8.4
2023-02-19T12:31:34.232Z,8.4
2023-02-19T12:32:35.833Z,8.5
2023-02-19T12:33:37.261Z,8.5
2023-02-19T12:34:38.676Z,8.5
2023-02-19T12:35:39.803Z,8.4
2023-02-19T12:36:41.024Z,8.4
2023-02-19T12:37:42.139Z,8.4
2023-02-19T12:38:43.552Z,8.3
2023-02-19T12:39:44.690Z,8.3
2023-02-19T12:40:45.317Z,8.3
2023-02-19T12:41:46.196Z,8.3
2023-02-19T12:42:47.306Z,8.3
2023-02-19T12:43:51.788Z,8.3
2023-02-19T12:44:53.200Z,8.3
2023-02-19T12:45:54.693Z,8.2
2023-02-19T12:46:55.897Z,8.2
2023-02-19T12:47:57.292Z,8.3
2023-02-19T12:48:58.432Z,8.3
2023-02-19T12:49:59.844Z,8.2
2023-02-19T12:51:01.263Z,8.2
2023-02-19T12:52:02.703Z,8.3
2023-02-19T12:53:04.098Z,8.3
2023-02-19T12:54:05.283Z,8.3
2023-02-19T12:55:06.420Z,8.2
2023-02-19T12:56:07.836Z,8.2
2023-02-19T12:57:09.576Z,8.3
2023-02-19T12:58:10.982Z,8.3
2023-02-19T12:59:12.398Z,8.3
2023-02-19T13:00:13.544Z,8.3
2023-02-19T13:01:14.984Z,8.3
2023-02-19T13:02:16.649Z,8.3
2023-02-19T13:03:17.735Z,8.3
2023-02-19T13:04:18.876Z,8.2
2023-02-19T13:05:20.290Z,8.2
2023-02-19T13:06:21.710Z,8.2
2023-02-19T13:07:22.643Z,8.1
2023-02-19T13:08:24.025Z,8.1
2023-02-19T13:09:25.476Z,8.1
2023-02-19T13:10:26.612Z,8.1
2023-02-19T13:11:27.812Z,8.1
2023-02-19T13:12:29.011Z,8.1
2023-02-19T13:13:30.397Z,8.1
2023-02-19T13:14:31.810Z,8
2023-02-19T13:15:32.986Z,8
2023-02-19T13:16:34.144Z,8
2023-02-19T13:17:35.157Z,8
2023-02-19T13:18:36.292Z,8
2023-02-19T13:19:37.698Z,8
2023-02-19T13:20:39.120Z,8
2023-02-19T13:21:40.292Z,8
2023-02-19T13:22:41.918Z,8
2023-02-19T13:23:43.295Z,7.9
2023-02-19T13:24:44.720Z,8
2023-02-19T13:25:46.137Z,8
2023-02-19T13:26:47.552Z,7.9
2023-02-19T13:27:48.705Z,7.9
2023-02-19T13:28:50.105Z,7.9
2023-02-19T13:29:52.097Z,7.9
2023-02-19T13:30:54.387Z,7.9
2023-02-19T13:31:56.004Z,7.9
2023-02-19T13:32:57.396Z,7.9
2023-02-19T13:33:58.816Z,7.9
2023-02-19T13:35:00.240Z,7.9
2023-02-19T13:36:01.641Z,7.9
2023-02-19T13:37:02.553Z,7.9
2023-02-19T13:38:03.988Z,7.8
2023-02-19T13:39:05.426Z,7.8
2023-02-19T13:40:06.618Z,7.8
2023-02-19T13:41:07.759Z,7.8
2023-02-19T13:42:08.898Z,7.9
2023-02-19T13:43:10.325Z,7.8
2023-02-19T13:44:11.729Z,7.9
2023-02-19T13:45:12.618Z,7.9
2023-02-19T13:46:13.799Z,7.9
2023-02-19T13:47:15.071Z,7.9
2023-02-19T13:48:16.258Z,7.9
2023-02-19T13:49:17.668Z,7.9
2023-02-19T13:50:18.804Z,7.9
2023-02-19T13:51:20.223Z,7.9
2023-02-19T13:52:21.760Z,7.9
2023-02-19T13:53:22.929Z,7.9
2023-02-19T13:54:24.351Z,7.9
2023-02-19T13:55:25.463Z,7.9
2023-02-19T13:56:27.041Z,7.8
2023-02-19T13:57:28.264Z,7.8
2023-02-19T13:58:29.705Z,7.8
2023-02-19T13:59:31.099Z,7.8
2023-02-19T14:00:32.281Z,7.8
2023-02-19T14:01:33.712Z,7.7
2023-02-19T14:02:35.169Z,7.7
2023-02-19T14:03:36.705Z,7.7
2023-02-19T14:04:38.094Z,7.7
2023-02-19T14:05:39.234Z,7.7
2023-02-19T14:06:40.376Z,7.7
2023-02-19T14:07:41.517Z,7.7
2023-02-19T14:08:42.938Z,7.7
2023-02-19T14:09:44.079Z,7.6